sensor_id;sensor_type;location;lat;lon;timestamp;P1;durP1;ratioP1;P2;durP2;ratioP2
49842;SDS011;55559;48.898;9.184;2023-01-01T00:00:39;78.18;;;46.38;;
49842;SDS011;55559;48.898;9.184;2023-01-01T00:03:06;84.38;;;42.60;;
49842;SDS011;55559;48.898;9.184;2023-01-01T00:05:36;79.63;;;42.35;;
49842;SDS011;55559;48.898;9.184;2023-01-01T00:08:04;69.70;;;37.75;;
49842;SDS011;55559;48.898;9.184;2023-01-01T00:10:33;62.55;;;35.03;;
49842;SDS011;55559;48.898;9.184;2023-01-01T00:13:00;57.30;;;32.17;;
49842;SDS011;55559;48.898;9.184;2023-01-01T00:15:28;56.53;;;29.77;;
49842;SDS011;55559;48.898;9.184;2023-01-01T00:17:55;52.42;;;27.90;;
49842;SDS011;55559;48.898;9.184;2023-01-01T00:20:23;49.03;;;24.52;;
49842;SDS011;55559;48.898;9.184;2023-01-01T00:22:50;43.80;;;24.48;;
49842;SDS011;55559;48.898;9.184;2023-01-01T00:25:18;39.35;;;21.95;;
49842;SDS011;55559;48.898;9.184;2023-01-01T00:27:47;37.83;;;19.50;;
49842;SDS011;55559;48.898;9.184;2023-01-01T00:30:14;34.35;;;21.73;;
49842;SDS011;55559;48.898;9.184;2023-01-01T00:32:42;37.25;;;19.52;;
49842;SDS011;55559;48.898;9.184;2023-01-01T00:35:10;38.10;;;19.55;;
49842;SDS011;55559;48.898;9.184;2023-01-01T00:37:37;40.38;;;20.38;;
49842;SDS011;55559;48.898;9.184;2023-01-01T00:40:05;41.55;;;23.60;;
49842;SDS011;55559;48.898;9.184;2023-01-01T00:42:33;43.22;;;24.45;;
49842;SDS011;55559;48.898;9.184;2023-01-01T00:45:06;48.28;;;24.88;;
49842;SDS011;55559;48.898;9.184;2023-01-01T00:47:35;36.03;;;20.77;;
49842;SDS011;55559;48.898;9.184;2023-01-01T00:50:02;35.75;;;19.08;;
49842;SDS011;55559;48.898;9.184;2023-01-01T00:52:30;28.08;;;15.95;;
49842;SDS011;55559;48.898;9.184;2023-01-01T00:54:57;23.50;;;14.00;;
49842;SDS011;55559;48.898;9.184;2023-01-01T00:57:25;21.77;;;12.02;;
49842;SDS011;55559;48.898;9.184;2023-01-01T00:59:52;21.30;;;9.85;;
49842;SDS011;55559;48.898;9.184;2023-01-01T01:02:21;16.58;;;8.85;;
49842;SDS011;55559;48.898;9.184;2023-01-01T01:04:49;14.88;;;7.78;;
49842;SDS011;55559;48.898;9.184;2023-01-01T01:07:16;16.13;;;8.23;;
49842;SDS011;55559;48.898;9.184;2023-01-01T01:09:43;11.05;;;6.75;;
49842;SDS011;55559;48.898;9.184;2023-01-01T01:12:11;13.25;;;6.35;;
49842;SDS011;55559;48.898;9.184;2023-01-01T01:14:38;15.13;;;6.40;;
49842;SDS011;55559;48.898;9.184;2023-01-01T01:17:06;8.88;;;5.53;;
49842;SDS011;55559;48.898;9.184;2023-01-01T01:19:35;11.88;;;5.53;;
49842;SDS011;55559;48.898;9.184;2023-01-01T01:22:02;13.02;;;5.22;;
49842;SDS011;55559;48.898;9.184;2023-01-01T01:24:30;9.13;;;4.70;;
49842;SDS011;55559;48.898;9.184;2023-01-01T01:26:57;6.80;;;4.75;;
49842;SDS011;55559;48.898;9.184;2023-01-01T01:29:25;8.68;;;4.40;;
49842;SDS011;55559;48.898;9.184;2023-01-01T01:31:52;10.52;;;4.25;;
49842;SDS011;55559;48.898;9.184;2023-01-01T01:34:20;8.48;;;4.50;;
49842;SDS011;55559;48.898;9.184;2023-01-01T01:36:49;6.50;;;4.15;;
49842;SDS011;55559;48.898;9.184;2023-01-01T01:39:17;8.93;;;4.78;;
49842;SDS011;55559;48.898;9.184;2023-01-01T01:41:45;8.23;;;3.75;;
49842;SDS011;55559;48.898;9.184;2023-01-01T01:47:14;7.60;;;3.75;;
49842;SDS011;55559;48.898;9.184;2023-01-01T01:49:48;6.85;;;3.58;;
49842;SDS011;55559;48.898;9.184;2023-01-01T01:52:22;6.72;;;3.25;;
49842;SDS011;55559;48.898;9.184;2023-01-01T01:54:51;5.30;;;3.85;;
49842;SDS011;55559;48.898;9.184;2023-01-01T01:57:19;10.68;;;4.32;;
49842;SDS011;55559;48.898;9.184;2023-01-01T01:59:49;7.85;;;4.10;;
49842;SDS011;55559;48.898;9.184;2023-01-01T02:02:21;6.72;;;2.75;;
49842;SDS011;55559;48.898;9.184;2023-01-01T02:04:54;9.52;;;3.45;;
49842;SDS011;55559;48.898;9.184;2023-01-01T02:07:24;7.10;;;3.03;;
49842;SDS011;55559;48.898;9.184;2023-01-01T02:09:52;10.75;;;2.42;;
49842;SDS011;55559;48.898;9.184;2023-01-01T02:12:20;4.55;;;2.00;;
49842;SDS011;55559;48.898;9.184;2023-01-01T02:14:47;4.93;;;2.78;;
49842;SDS011;55559;48.898;9.184;2023-01-01T02:17:16;6.45;;;2.45;;
49842;SDS011;55559;48.898;9.184;2023-01-01T02:20:06;5.75;;;3.10;;
49842;SDS011;55559;48.898;9.184;2023-01-01T02:23:01;4.63;;;2.72;;
49842;SDS011;55559;48.898;9.184;2023-01-01T02:25:44;7.80;;;2.65;;
49842;SDS011;55559;48.898;9.184;2023-01-01T02:28:20;5.50;;;2.28;;
49842;SDS011;55559;48.898;9.184;2023-01-01T02:31:03;7.22;;;3.25;;
49842;SDS011;55559;48.898;9.184;2023-01-01T02:33:32;6.90;;;2.90;;
49842;SDS011;55559;48.898;9.184;2023-01-01T02:36:01;5.43;;;2.55;;
49842;SDS011;55559;48.898;9.184;2023-01-01T02:38:31;7.20;;;2.97;;
49842;SDS011;55559;48.898;9.184;2023-01-01T02:41:01;10.27;;;3.67;;
49842;SDS011;55559;48.898;9.184;2023-01-01T02:43:31;4.90;;;2.28;;
49842;SDS011;55559;48.898;9.184;2023-01-01T02:46:03;25.63;;;14.23;;
49842;SDS011;55559;48.898;9.184;2023-01-01T02:48:37;18.05;;;7.70;;
49842;SDS011;55559;48.898;9.184;2023-01-01T02:51:10;11.25;;;3.20;;
49842;SDS011;55559;48.898;9.184;2023-01-01T02:53:45;6.93;;;2.55;;
49842;SDS011;55559;48.898;9.184;2023-01-01T02:56:20;3.72;;;1.88;;
49842;SDS011;55559;48.898;9.184;2023-01-01T02:58:59;6.38;;;2.35;;
49842;SDS011;55559;48.898;9.184;2023-01-01T03:04:30;4.18;;;1.77;;
49842;SDS011;55559;48.898;9.184;2023-01-01T03:07:09;5.75;;;2.03;;
49842;SDS011;55559;48.898;9.184;2023-01-01T03:09:41;4.35;;;1.92;;
49842;SDS011;55559;48.898;9.184;2023-01-01T03:12:15;4.28;;;1.58;;
49842;SDS011;55559;48.898;9.184;2023-01-01T03:15:07;5.32;;;1.65;;
49842;SDS011;55559;48.898;9.184;2023-01-01T03:17:43;7.53;;;2.13;;
49842;SDS011;55559;48.898;9.184;2023-01-01T03:20:17;5.20;;;1.52;;
49842;SDS011;55559;48.898;9.184;2023-01-01T03:22:51;3.85;;;1.13;;
49842;SDS011;55559;48.898;9.184;2023-01-01T03:25:26;5.72;;;1.67;;
49842;SDS011;55559;48.898;9.184;2023-01-01T03:27:58;3.17;;;1.27;;
49842;SDS011;55559;48.898;9.184;2023-01-01T03:30:29;5.03;;;1.38;;
49842;SDS011;55559;48.898;9.184;2023-01-01T03:35:36;4.03;;;1.55;;
49842;SDS011;55559;48.898;9.184;2023-01-01T03:38:11;3.03;;;1.17;;
49842;SDS011;55559;48.898;9.184;2023-01-01T03:40:44;4.15;;;1.02;;
49842;SDS011;55559;48.898;9.184;2023-01-01T03:43:16;4.63;;;1.95;;
49842;SDS011;55559;48.898;9.184;2023-01-01T03:45:48;3.53;;;1.30;;
49842;SDS011;55559;48.898;9.184;2023-01-01T03:48:18;5.78;;;1.02;;
49842;SDS011;55559;48.898;9.184;2023-01-01T03:50:48;3.47;;;1.02;;
49842;SDS011;55559;48.898;9.184;2023-01-01T03:53:26;5.80;;;1.30;;
49842;SDS011;55559;48.898;9.184;2023-01-01T03:56:07;8.00;;;1.85;;
49842;SDS011;55559;48.898;9.184;2023-01-01T03:58:41;3.70;;;1.75;;
49842;SDS011;55559;48.898;9.184;2023-01-01T04:01:17;4.32;;;1.67;;
49842;SDS011;55559;48.898;9.184;2023-01-01T04:03:50;2.60;;;1.20;;
49842;SDS011;55559;48.898;9.184;2023-01-01T04:06:18;4.80;;;1.48;;
49842;SDS011;55559;48.898;9.184;2023-01-01T04:08:46;3.03;;;1.42;;
49842;SDS011;55559;48.898;9.184;2023-01-01T04:11:17;7.53;;;1.55;;
49842;SDS011;55559;48.898;9.184;2023-01-01T04:14:06;2.92;;;1.20;;
49842;SDS011;55559;48.898;9.184;2023-01-01T04:16:35;5.63;;;1.48;;
49842;SDS011;55559;48.898;9.184;2023-01-01T04:19:03;6.60;;;2.10;;
49842;SDS011;55559;48.898;9.184;2023-01-01T04:21:31;3.45;;;1.42;;
49842;SDS011;55559;48.898;9.184;2023-01-01T04:23:58;4.63;;;1.77;;
49842;SDS011;55559;48.898;9.184;2023-01-01T04:26:26;5.68;;;1.35;;
49842;SDS011;55559;48.898;9.184;2023-01-01T04:28:53;9.35;;;3.08;;
49842;SDS011;55559;48.898;9.184;2023-01-01T04:31:21;5.68;;;3.50;;
49842;SDS011;55559;48.898;9.184;2023-01-01T04:33:53;7.72;;;4.72;;
49842;SDS011;55559;48.898;9.184;2023-01-01T04:36:21;5.38;;;1.98;;
49842;SDS011;55559;48.898;9.184;2023-01-01T04:38:48;3.40;;;1.60;;
49842;SDS011;55559;48.898;9.184;2023-01-01T04:41:15;3.95;;;1.17;;
49842;SDS011;55559;48.898;9.184;2023-01-01T04:43:45;5.20;;;1.00;;
49842;SDS011;55559;48.898;9.184;2023-01-01T04:46:14;6.25;;;1.25;;
49842;SDS011;55559;48.898;9.184;2023-01-01T04:48:41;4.75;;;0.93;;
49842;SDS011;55559;48.898;9.184;2023-01-01T04:51:11;3.65;;;1.00;;
49842;SDS011;55559;48.898;9.184;2023-01-01T04:53:40;4.68;;;1.23;;
49842;SDS011;55559;48.898;9.184;2023-01-01T04:56:09;5.63;;;1.45;;
49842;SDS011;55559;48.898;9.184;2023-01-01T04:58:38;3.78;;;1.10;;
49842;SDS011;55559;48.898;9.184;2023-01-01T05:01:07;3.92;;;1.08;;
49842;SDS011;55559;48.898;9.184;2023-01-01T05:03:40;5.07;;;0.70;;
49842;SDS011;55559;48.898;9.184;2023-01-01T05:06:08;2.78;;;1.13;;
49842;SDS011;55559;48.898;9.184;2023-01-01T05:08:38;4.50;;;1.15;;
49842;SDS011;55559;48.898;9.184;2023-01-01T05:11:08;6.22;;;1.00;;
49842;SDS011;55559;48.898;9.184;2023-01-01T05:13:36;4.78;;;0.80;;
49842;SDS011;55559;48.898;9.184;2023-01-01T05:16:06;4.65;;;1.13;;
49842;SDS011;55559;48.898;9.184;2023-01-01T05:18:36;2.45;;;1.08;;
49842;SDS011;55559;48.898;9.184;2023-01-01T05:21:08;2.90;;;0.70;;
49842;SDS011;55559;48.898;9.184;2023-01-01T05:23:39;2.58;;;0.70;;
49842;SDS011;55559;48.898;9.184;2023-01-01T05:26:10;7.00;;;0.80;;
49842;SDS011;55559;48.898;9.184;2023-01-01T05:28:38;2.58;;;1.00;;
49842;SDS011;55559;48.898;9.184;2023-01-01T05:31:07;2.47;;;0.90;;
49842;SDS011;55559;48.898;9.184;2023-01-01T05:33:35;4.53;;;0.88;;
49842;SDS011;55559;48.898;9.184;2023-01-01T05:36:04;4.35;;;0.70;;
49842;SDS011;55559;48.898;9.184;2023-01-01T05:38:33;2.63;;;0.80;;
49842;SDS011;55559;48.898;9.184;2023-01-01T05:41:05;6.28;;;0.52;;
49842;SDS011;55559;48.898;9.184;2023-01-01T05:43:34;6.03;;;0.60;;
49842;SDS011;55559;48.898;9.184;2023-01-01T05:46:03;2.90;;;0.80;;
49842;SDS011;55559;48.898;9.184;2023-01-01T05:48:32;5.88;;;1.05;;
49842;SDS011;55559;48.898;9.184;2023-01-01T05:51:01;1.67;;;0.57;;
49842;SDS011;55559;48.898;9.184;2023-01-01T05:53:30;3.60;;;0.60;;
49842;SDS011;55559;48.898;9.184;2023-01-01T05:55:58;5.38;;;0.80;;
49842;SDS011;55559;48.898;9.184;2023-01-01T05:58:27;2.28;;;0.60;;
49842;SDS011;55559;48.898;9.184;2023-01-01T06:01:03;4.30;;;0.68;;
49842;SDS011;55559;48.898;9.184;2023-01-01T06:03:32;4.63;;;0.60;;
49842;SDS011;55559;48.898;9.184;2023-01-01T06:06:02;1.60;;;0.50;;
49842;SDS011;55559;48.898;9.184;2023-01-01T06:08:31;1.63;;;0.52;;
49842;SDS011;55559;48.898;9.184;2023-01-01T06:10:59;5.75;;;0.68;;
49842;SDS011;55559;48.898;9.184;2023-01-01T06:13:29;2.05;;;0.40;;
49842;SDS011;55559;48.898;9.184;2023-01-01T06:15:57;4.95;;;0.60;;
49842;SDS011;55559;48.898;9.184;2023-01-01T06:18:28;3.08;;;0.60;;
49842;SDS011;55559;48.898;9.184;2023-01-01T06:21:02;2.30;;;0.40;;
49842;SDS011;55559;48.898;9.184;2023-01-01T06:23:31;4.47;;;0.60;;
49842;SDS011;55559;48.898;9.184;2023-01-01T06:26:02;1.67;;;0.52;;
49842;SDS011;55559;48.898;9.184;2023-01-01T06:28:35;2.33;;;0.57;;
49842;SDS011;55559;48.898;9.184;2023-01-01T06:31:03;4.05;;;0.50;;
49842;SDS011;55559;48.898;9.184;2023-01-01T06:33:32;6.43;;;0.80;;
49842;SDS011;55559;48.898;9.184;2023-01-01T06:36:01;10.20;;;1.13;;
49842;SDS011;55559;48.898;9.184;2023-01-01T06:38:29;4.38;;;0.70;;
49842;SDS011;55559;48.898;9.184;2023-01-01T06:40:57;4.57;;;0.70;;
49842;SDS011;55559;48.898;9.184;2023-01-01T06:43:26;4.60;;;0.65;;
49842;SDS011;55559;48.898;9.184;2023-01-01T06:46:02;2.45;;;0.70;;
49842;SDS011;55559;48.898;9.184;2023-01-01T06:48:32;5.30;;;1.27;;
49842;SDS011;55559;48.898;9.184;2023-01-01T06:51:03;2.83;;;0.90;;
49842;SDS011;55559;48.898;9.184;2023-01-01T06:53:32;3.33;;;0.80;;
49842;SDS011;55559;48.898;9.184;2023-01-01T06:56:00;1.83;;;0.75;;
49842;SDS011;55559;48.898;9.184;2023-01-01T06:58:27;5.60;;;1.05;;
49842;SDS011;55559;48.898;9.184;2023-01-01T07:01:03;3.92;;;1.02;;
49842;SDS011;55559;48.898;9.184;2023-01-01T07:03:31;4.93;;;1.15;;
49842;SDS011;55559;48.898;9.184;2023-01-01T07:05:59;3.70;;;1.08;;
49842;SDS011;55559;48.898;9.184;2023-01-01T07:08:27;2.58;;;0.80;;
49842;SDS011;55559;48.898;9.184;2023-01-01T07:10:54;7.25;;;0.95;;
49842;SDS011;55559;48.898;9.184;2023-01-01T07:13:22;2.17;;;0.80;;
49842;SDS011;55559;48.898;9.184;2023-01-01T07:15:50;5.40;;;1.00;;
49842;SDS011;55559;48.898;9.184;2023-01-01T07:18:19;4.57;;;1.00;;
49842;SDS011;55559;48.898;9.184;2023-01-01T07:20:48;2.10;;;1.08;;
49842;SDS011;55559;48.898;9.184;2023-01-01T07:23:17;4.65;;;1.10;;
49842;SDS011;55559;48.898;9.184;2023-01-01T07:25:44;3.17;;;1.00;;
49842;SDS011;55559;48.898;9.184;2023-01-01T07:28:14;6.95;;;1.13;;
49842;SDS011;55559;48.898;9.184;2023-01-01T07:30:41;5.10;;;1.10;;
49842;SDS011;55559;48.898;9.184;2023-01-01T07:33:09;5.65;;;0.90;;
49842;SDS011;55559;48.898;9.184;2023-01-01T07:35:39;10.40;;;1.05;;
49842;SDS011;55559;48.898;9.184;2023-01-01T07:38:09;2.83;;;1.00;;
49842;SDS011;55559;48.898;9.184;2023-01-01T07:40:36;9.43;;;1.05;;
49842;SDS011;55559;48.898;9.184;2023-01-01T07:43:04;3.13;;;1.52;;
49842;SDS011;55559;48.898;9.184;2023-01-01T07:45:31;2.72;;;1.05;;
49842;SDS011;55559;48.898;9.184;2023-01-01T07:47:59;2.33;;;0.95;;
49842;SDS011;55559;48.898;9.184;2023-01-01T07:50:28;2.47;;;0.88;;
49842;SDS011;55559;48.898;9.184;2023-01-01T07:52:58;4.60;;;1.00;;
49842;SDS011;55559;48.898;9.184;2023-01-01T07:55:25;4.10;;;0.80;;
49842;SDS011;55559;48.898;9.184;2023-01-01T07:57:53;5.10;;;0.82;;
49842;SDS011;55559;48.898;9.184;2023-01-01T08:00:20;2.05;;;0.70;;
49842;SDS011;55559;48.898;9.184;2023-01-01T08:02:48;2.10;;;0.80;;
49842;SDS011;55559;48.898;9.184;2023-01-01T08:05:15;3.03;;;0.82;;
49842;SDS011;55559;48.898;9.184;2023-01-01T08:07:44;2.28;;;0.65;;
49842;SDS011;55559;48.898;9.184;2023-01-01T08:10:14;3.10;;;0.70;;
49842;SDS011;55559;48.898;9.184;2023-01-01T08:12:42;6.43;;;0.80;;
49842;SDS011;55559;48.898;9.184;2023-01-01T08:15:10;3.20;;;0.70;;
49842;SDS011;55559;48.898;9.184;2023-01-01T08:17:38;1.92;;;0.70;;
49842;SDS011;55559;48.898;9.184;2023-01-01T08:20:06;5.38;;;1.02;;
49842;SDS011;55559;48.898;9.184;2023-01-01T08:22:35;3.65;;;0.80;;
49842;SDS011;55559;48.898;9.184;2023-01-01T08:25:03;3.00;;;0.70;;
49842;SDS011;55559;48.898;9.184;2023-01-01T08:27:32;13.02;;;1.15;;
49842;SDS011;55559;48.898;9.184;2023-01-01T08:30:00;3.53;;;0.70;;
49842;SDS011;55559;48.898;9.184;2023-01-01T08:32:27;4.55;;;1.05;;
49842;SDS011;55559;48.898;9.184;2023-01-01T08:34:55;5.35;;;1.30;;
49842;SDS011;55559;48.898;9.184;2023-01-01T08:37:22;2.05;;;0.80;;
49842;SDS011;55559;48.898;9.184;2023-01-01T08:39:52;2.33;;;0.65;;
49842;SDS011;55559;48.898;9.184;2023-01-01T08:42:19;2.53;;;0.57;;
49842;SDS011;55559;48.898;9.184;2023-01-01T08:44:48;2.45;;;0.90;;
49842;SDS011;55559;48.898;9.184;2023-01-01T08:47:16;2.33;;;0.80;;
49842;SDS011;55559;48.898;9.184;2023-01-01T08:49:44;7.28;;;0.80;;
49842;SDS011;55559;48.898;9.184;2023-01-01T08:52:12;5.60;;;0.88;;
49842;SDS011;55559;48.898;9.184;2023-01-01T08:54:40;3.20;;;0.77;;
49842;SDS011;55559;48.898;9.184;2023-01-01T08:57:08;2.10;;;0.70;;
49842;SDS011;55559;48.898;9.184;2023-01-01T08:59:35;4.43;;;1.00;;
49842;SDS011;55559;48.898;9.184;2023-01-01T09:02:04;5.85;;;1.25;;
49842;SDS011;55559;48.898;9.184;2023-01-01T09:04:32;6.03;;;0.80;;
49842;SDS011;55559;48.898;9.184;2023-01-01T09:06:59;8.50;;;1.20;;
49842;SDS011;55559;48.898;9.184;2023-01-01T09:09:27;2.30;;;0.70;;
49842;SDS011;55559;48.898;9.184;2023-01-01T09:11:56;5.32;;;1.00;;
49842;SDS011;55559;48.898;9.184;2023-01-01T09:16:55;3.65;;;1.10;;
49842;SDS011;55559;48.898;9.184;2023-01-01T09:19:24;4.40;;;1.33;;
49842;SDS011;55559;48.898;9.184;2023-01-01T09:21:52;2.45;;;0.70;;
49842;SDS011;55559;48.898;9.184;2023-01-01T09:24:20;2.65;;;0.68;;
49842;SDS011;55559;48.898;9.184;2023-01-01T09:26:47;2.30;;;0.77;;
49842;SDS011;55559;48.898;9.184;2023-01-01T09:29:15;5.25;;;1.17;;
49842;SDS011;55559;48.898;9.184;2023-01-01T09:31:45;6.50;;;1.17;;
49842;SDS011;55559;48.898;9.184;2023-01-01T09:34:13;6.68;;;1.10;;
49842;SDS011;55559;48.898;9.184;2023-01-01T09:36:43;2.47;;;0.80;;
49842;SDS011;55559;48.898;9.184;2023-01-01T09:39:11;6.15;;;1.60;;
49842;SDS011;55559;48.898;9.184;2023-01-01T09:41:42;3.65;;;0.73;;
49842;SDS011;55559;48.898;9.184;2023-01-01T09:44:24;3.80;;;1.00;;
49842;SDS011;55559;48.898;9.184;2023-01-01T09:47:12;5.88;;;1.17;;
49842;SDS011;55559;48.898;9.184;2023-01-01T09:49:46;6.43;;;0.80;;
49842;SDS011;55559;48.898;9.184;2023-01-01T09:52:17;3.45;;;0.70;;
49842;SDS011;55559;48.898;9.184;2023-01-01T09:54:47;4.22;;;0.90;;
49842;SDS011;55559;48.898;9.184;2023-01-01T09:57:20;3.67;;;1.20;;
49842;SDS011;55559;48.898;9.184;2023-01-01T09:59:53;2.63;;;1.02;;
49842;SDS011;55559;48.898;9.184;2023-01-01T10:02:26;4.93;;;0.65;;
49842;SDS011;55559;48.898;9.184;2023-01-01T10:05:10;2.63;;;0.70;;
49842;SDS011;55559;48.898;9.184;2023-01-01T10:07:47;7.45;;;0.80;;
49842;SDS011;55559;48.898;9.184;2023-01-01T10:10:21;7.15;;;1.00;;
49842;SDS011;55559;48.898;9.184;2023-01-01T10:13:03;3.10;;;0.85;;
49842;SDS011;55559;48.898;9.184;2023-01-01T10:15:42;3.92;;;0.90;;
49842;SDS011;55559;48.898;9.184;2023-01-01T10:18:16;3.53;;;1.05;;
49842;SDS011;55559;48.898;9.184;2023-01-01T10:20:49;3.20;;;0.70;;
49842;SDS011;55559;48.898;9.184;2023-01-01T10:23:26;6.65;;;2.08;;
49842;SDS011;55559;48.898;9.184;2023-01-01T10:28:29;6.25;;;2.88;;
49842;SDS011;55559;48.898;9.184;2023-01-01T10:31:15;7.95;;;3.67;;
49842;SDS011;55559;48.898;9.184;2023-01-01T10:33:44;5.82;;;2.50;;
49842;SDS011;55559;48.898;9.184;2023-01-01T10:36:13;7.57;;;3.35;;
49842;SDS011;55559;48.898;9.184;2023-01-01T10:38:45;10.55;;;3.38;;
49842;SDS011;55559;48.898;9.184;2023-01-01T10:41:13;8.55;;;3.90;;
49842;SDS011;55559;48.898;9.184;2023-01-01T10:43:42;4.93;;;3.15;;
49842;SDS011;55559;48.898;9.184;2023-01-01T10:46:12;9.32;;;3.08;;
49842;SDS011;55559;48.898;9.184;2023-01-01T10:48:52;6.50;;;3.10;;
49842;SDS011;55559;48.898;9.184;2023-01-01T10:51:30;8.57;;;3.20;;
49842;SDS011;55559;48.898;9.184;2023-01-01T10:53:59;7.75;;;3.60;;
49842;SDS011;55559;48.898;9.184;2023-01-01T10:56:36;9.85;;;3.30;;
49842;SDS011;55559;48.898;9.184;2023-01-01T10:59:30;6.68;;;3.33;;
49842;SDS011;55559;48.898;9.184;2023-01-01T11:02:14;10.23;;;3.97;;
49842;SDS011;55559;48.898;9.184;2023-01-01T11:04:47;12.02;;;3.47;;
49842;SDS011;55559;48.898;9.184;2023-01-01T11:07:17;7.90;;;3.00;;
49842;SDS011;55559;48.898;9.184;2023-01-01T11:09:51;8.30;;;3.40;;
49842;SDS011;55559;48.898;9.184;2023-01-01T11:12:26;7.65;;;2.75;;
49842;SDS011;55559;48.898;9.184;2023-01-01T11:14:57;5.35;;;2.17;;
49842;SDS011;55559;48.898;9.184;2023-01-01T11:17:26;9.43;;;2.50;;
49842;SDS011;55559;48.898;9.184;2023-01-01T11:19:56;4.32;;;2.28;;
49842;SDS011;55559;48.898;9.184;2023-01-01T11:22:35;7.40;;;2.38;;
49842;SDS011;55559;48.898;9.184;2023-01-01T11:25:16;5.72;;;1.80;;
49842;SDS011;55559;48.898;9.184;2023-01-01T11:27:46;7.47;;;1.42;;
49842;SDS011;55559;48.898;9.184;2023-01-01T11:30:19;8.45;;;1.88;;
49842;SDS011;55559;48.898;9.184;2023-01-01T11:32:49;9.48;;;1.40;;
49842;SDS011;55559;48.898;9.184;2023-01-01T11:35:20;3.70;;;1.20;;
49842;SDS011;55559;48.898;9.184;2023-01-01T11:37:50;5.68;;;1.20;;
49842;SDS011;55559;48.898;9.184;2023-01-01T11:40:21;9.98;;;1.35;;
49842;SDS011;55559;48.898;9.184;2023-01-01T11:42:55;5.53;;;0.80;;
49842;SDS011;55559;48.898;9.184;2023-01-01T11:45:24;6.07;;;0.60;;
49842;SDS011;55559;48.898;9.184;2023-01-01T11:48:00;7.28;;;1.45;;
49842;SDS011;55559;48.898;9.184;2023-01-01T11:50:31;6.78;;;1.05;;
49842;SDS011;55559;48.898;9.184;2023-01-01T11:53:16;7.68;;;1.40;;
49842;SDS011;55559;48.898;9.184;2023-01-01T11:55:47;6.68;;;0.93;;
49842;SDS011;55559;48.898;9.184;2023-01-01T11:58:20;6.72;;;0.77;;
49842;SDS011;55559;48.898;9.184;2023-01-01T12:00:53;5.32;;;1.25;;
49842;SDS011;55559;48.898;9.184;2023-01-01T12:03:24;8.63;;;1.25;;
49842;SDS011;55559;48.898;9.184;2023-01-01T12:05:57;5.35;;;1.23;;
49842;SDS011;55559;48.898;9.184;2023-01-01T12:08:34;3.53;;;1.23;;
49842;SDS011;55559;48.898;9.184;2023-01-01T12:11:09;4.47;;;1.00;;
49842;SDS011;55559;48.898;9.184;2023-01-01T12:13:44;8.05;;;1.15;;
49842;SDS011;55559;48.898;9.184;2023-01-01T12:16:18;3.55;;;0.80;;
49842;SDS011;55559;48.898;9.184;2023-01-01T12:18:51;6.20;;;1.35;;
49842;SDS011;55559;48.898;9.184;2023-01-01T12:21:28;2.20;;;0.75;;
49842;SDS011;55559;48.898;9.184;2023-01-01T12:23:57;6.43;;;1.25;;
49842;SDS011;55559;48.898;9.184;2023-01-01T12:26:28;3.10;;;0.73;;
49842;SDS011;55559;48.898;9.184;2023-01-01T12:29:09;11.20;;;0.70;;
49842;SDS011;55559;48.898;9.184;2023-01-01T12:31:54;6.50;;;0.70;;
49842;SDS011;55559;48.898;9.184;2023-01-01T12:34:29;7.22;;;1.00;;
49842;SDS011;55559;48.898;9.184;2023-01-01T12:37:04;9.70;;;1.05;;
49842;SDS011;55559;48.898;9.184;2023-01-01T12:42:54;4.03;;;0.63;;
49842;SDS011;55559;48.898;9.184;2023-01-01T12:48:35;7.55;;;0.70;;
49842;SDS011;55559;48.898;9.184;2023-01-01T12:51:19;8.25;;;0.82;;
49842;SDS011;55559;48.898;9.184;2023-01-01T12:53:58;7.63;;;0.75;;
49842;SDS011;55559;48.898;9.184;2023-01-01T12:56:38;2.70;;;0.60;;
49842;SDS011;55559;48.898;9.184;2023-01-01T12:59:11;4.65;;;0.70;;
49842;SDS011;55559;48.898;9.184;2023-01-01T13:04:09;4.97;;;0.90;;
49842;SDS011;55559;48.898;9.184;2023-01-01T13:06:40;4.28;;;0.70;;
49842;SDS011;55559;48.898;9.184;2023-01-01T13:09:12;8.77;;;0.70;;
49842;SDS011;55559;48.898;9.184;2023-01-01T13:11:42;3.92;;;0.60;;
49842;SDS011;55559;48.898;9.184;2023-01-01T13:14:14;7.07;;;0.60;;
49842;SDS011;55559;48.898;9.184;2023-01-01T13:16:41;5.22;;;0.75;;
49842;SDS011;55559;48.898;9.184;2023-01-01T13:19:23;6.57;;;0.80;;
49842;SDS011;55559;48.898;9.184;2023-01-01T13:21:53;7.40;;;0.80;;
49842;SDS011;55559;48.898;9.184;2023-01-01T13:24:20;7.07;;;0.70;;
49842;SDS011;55559;48.898;9.184;2023-01-01T13:26:49;8.15;;;0.60;;
49842;SDS011;55559;48.898;9.184;2023-01-01T13:29:31;6.72;;;0.65;;
49842;SDS011;55559;48.898;9.184;2023-01-01T13:32:07;4.35;;;0.85;;
49842;SDS011;55559;48.898;9.184;2023-01-01T13:37:44;5.80;;;0.80;;
49842;SDS011;55559;48.898;9.184;2023-01-01T13:40:29;9.50;;;0.77;;
49842;SDS011;55559;48.898;9.184;2023-01-01T13:43:28;2.10;;;0.50;;
49842;SDS011;55559;48.898;9.184;2023-01-01T13:46:01;7.10;;;0.70;;
49842;SDS011;55559;48.898;9.184;2023-01-01T13:54:56;4.88;;;0.80;;
49842;SDS011;55559;48.898;9.184;2023-01-01T13:57:52;10.48;;;0.98;;
49842;SDS011;55559;48.898;9.184;2023-01-01T14:00:53;3.72;;;0.63;;
49842;SDS011;55559;48.898;9.184;2023-01-01T14:03:39;7.97;;;1.10;;
49842;SDS011;55559;48.898;9.184;2023-01-01T14:06:11;6.50;;;0.70;;
49842;SDS011;55559;48.898;9.184;2023-01-01T14:08:42;6.18;;;0.80;;
49842;SDS011;55559;48.898;9.184;2023-01-01T14:11:19;12.50;;;0.73;;
49842;SDS011;55559;48.898;9.184;2023-01-01T14:13:50;5.68;;;0.80;;
49842;SDS011;55559;48.898;9.184;2023-01-01T14:16:19;10.60;;;0.70;;
49842;SDS011;55559;48.898;9.184;2023-01-01T14:18:46;4.15;;;0.60;;
49842;SDS011;55559;48.898;9.184;2023-01-01T14:21:16;5.72;;;0.70;;
49842;SDS011;55559;48.898;9.184;2023-01-01T14:23:45;8.23;;;0.68;;
49842;SDS011;55559;48.898;9.184;2023-01-01T14:26:16;6.00;;;0.73;;
49842;SDS011;55559;48.898;9.184;2023-01-01T14:28:46;5.50;;;0.80;;
49842;SDS011;55559;48.898;9.184;2023-01-01T14:31:14;6.68;;;0.70;;
49842;SDS011;55559;48.898;9.184;2023-01-01T14:33:46;12.20;;;0.68;;
49842;SDS011;55559;48.898;9.184;2023-01-01T14:36:14;3.88;;;0.90;;
49842;SDS011;55559;48.898;9.184;2023-01-01T14:38:46;9.77;;;1.20;;
49842;SDS011;55559;48.898;9.184;2023-01-01T14:41:16;8.07;;;1.17;;
49842;SDS011;55559;48.898;9.184;2023-01-01T14:43:48;3.33;;;0.80;;
49842;SDS011;55559;48.898;9.184;2023-01-01T14:46:18;7.13;;;0.88;;
49842;SDS011;55559;48.898;9.184;2023-01-01T14:48:50;7.57;;;1.10;;
49842;SDS011;55559;48.898;9.184;2023-01-01T14:51:20;14.57;;;1.20;;
49842;SDS011;55559;48.898;9.184;2023-01-01T14:53:50;10.77;;;1.08;;
49842;SDS011;55559;48.898;9.184;2023-01-01T14:56:20;7.32;;;0.90;;
49842;SDS011;55559;48.898;9.184;2023-01-01T14:58:50;8.63;;;0.93;;
49842;SDS011;55559;48.898;9.184;2023-01-01T15:01:21;3.53;;;0.75;;
49842;SDS011;55559;48.898;9.184;2023-01-01T15:03:58;7.30;;;1.58;;
49842;SDS011;55559;48.898;9.184;2023-01-01T15:06:26;12.07;;;1.00;;
49842;SDS011;55559;48.898;9.184;2023-01-01T15:08:55;10.57;;;0.90;;
49842;SDS011;55559;48.898;9.184;2023-01-01T15:11:22;12.65;;;2.42;;
49842;SDS011;55559;48.898;9.184;2023-01-01T15:13:51;6.22;;;0.85;;
49842;SDS011;55559;48.898;9.184;2023-01-01T15:16:20;9.52;;;1.17;;
49842;SDS011;55559;48.898;9.184;2023-01-01T15:18:48;7.20;;;1.13;;
49842;SDS011;55559;48.898;9.184;2023-01-01T15:21:23;10.60;;;1.20;;
49842;SDS011;55559;48.898;9.184;2023-01-01T15:24:02;10.25;;;3.35;;
49842;SDS011;55559;48.898;9.184;2023-01-01T15:26:38;18.58;;;8.45;;
49842;SDS011;55559;48.898;9.184;2023-01-01T15:29:09;14.98;;;5.63;;
49842;SDS011;55559;48.898;9.184;2023-01-01T15:34:20;12.90;;;1.58;;
49842;SDS011;55559;48.898;9.184;2023-01-01T15:36:53;9.18;;;2.05;;
49842;SDS011;55559;48.898;9.184;2023-01-01T15:39:22;15.48;;;2.78;;
49842;SDS011;55559;48.898;9.184;2023-01-01T15:41:50;7.70;;;1.73;;
49842;SDS011;55559;48.898;9.184;2023-01-01T15:44:20;7.90;;;1.88;;